CPX771 Details

Departure: Liège Airport (EBLG)
Arrival: Tallinn Airport (EETN)
Route: LNO5E LNO M170 NVO UZ706 PIXID GESKA P605 MALIV M611 KOLJA M611 LONSA


Current Weather Information
EBLG 261020Z 31007KT 270V340 9999 SCT022 BKN038 07/01 Q1032 NOSIG
EETN 261020Z 32013KT 300V360 CAVOK 02/M08 Q1008 R08/19//95 NOSIG